Time;durP1;ratioP1;P1;durP2;ratioP2;P2;SDS_P1;SDS_P2;PMS_P1;PMS_P2;Temp;Humidity;BMP_temperature;BMP_pressure;BME280_temperature;BME280_humidity;BME280_pressure;Samples;Min_cycle;Max_cycle;Signal;HPM_P1;HPM_P2
2023/04/30 00:00:23;;;;;;;9.60;6.72;;;;;;;7.02;88.13;102428.72;6081418;23;20083;-78
2023/04/30 00:02:49;;;;;;;7.97;6.63;;;;;;;6.99;87.52;102424.16;6099901;23;20019;-78
2023/04/30 00:05:16;;;;;;;12.52;6.45;;;;;;;6.94;87.45;102427.16;6074364;23;20118;-77
2023/04/30 00:07:42;;;;;;;9.25;6.18;;;;;;;6.90;87.26;102417.69;6074067;23;20050;-78
2023/04/30 00:10:09;;;;;;;7.28;6.35;;;;;;;6.87;87.97;102424.50;6099278;23;20022;-78
2023/04/30 00:12:37;;;;;;;9.27;6.85;;;;;;;6.82;88.06;102421.44;6099989;23;20098;-77
2023/04/30 00:15:04;;;;;;;14.73;6.30;;;;;;;6.80;88.40;102421.09;6099128;23;20015;-77
2023/04/30 00:17:30;;;;;;;11.10;7.13;;;;;;;6.77;88.86;102409.34;6100154;23;20086;-79
2023/04/30 00:19:57;;;;;;;10.48;6.97;;;;;;;6.75;88.10;102422.19;6073648;23;20023;-78
2023/04/30 00:22:23;;;;;;;10.00;6.40;;;;;;;6.72;87.51;102420.28;6099320;23;20088;-78
2023/04/30 00:24:49;;;;;;;9.93;6.65;;;;;;;6.71;87.08;102415.38;6099434;23;20456;-78
2023/04/30 00:27:17;;;;;;;10.93;6.93;;;;;;;6.66;87.37;102411.94;6099505;23;20019;-79
2023/04/30 00:29:43;;;;;;;11.75;6.78;;;;;;;6.62;87.91;102415.69;6099642;23;20019;-78
2023/04/30 00:32:10;;;;;;;13.23;6.57;;;;;;;6.56;88.19;102423.22;6073123;23;20031;-78
2023/04/30 00:34:36;;;;;;;9.90;6.60;;;;;;;6.52;87.99;102417.16;6099662;23;20326;-78
2023/04/30 00:37:03;;;;;;;8.65;6.40;;;;;;;6.50;87.84;102413.34;6073379;23;20536;-78
2023/04/30 00:39:29;;;;;;;9.52;7.18;;;;;;;6.47;87.80;102414.09;6100930;23;20046;-78
2023/04/30 00:41:56;;;;;;;12.07;6.68;;;;;;;6.43;87.75;102413.31;6074356;23;20035;-78
2023/04/30 00:44:22;;;;;;;7.50;5.68;;;;;;;6.41;88.14;102423.50;6075034;23;20023;-78
2023/04/30 00:46:49;;;;;;;7.82;6.55;;;;;;;6.39;88.05;102425.78;6100456;23;20350;-78
2023/04/30 00:49:15;;;;;;;6.80;6.18;;;;;;;6.35;88.24;102420.47;6074770;23;20457;-78
2023/04/30 00:51:44;;;;;;;8.50;6.68;;;;;;;6.32;88.85;102429.91;6100368;23;20019;-78
2023/04/30 00:54:11;;;;;;;9.30;6.88;;;;;;;6.29;89.03;102432.53;6074281;23;20079;-78
2023/04/30 00:56:38;;;;;;;10.80;7.10;;;;;;;6.26;88.77;102439.31;6074847;23;20023;-78
2023/04/30 00:59:05;;;;;;;9.73;7.20;;;;;;;6.20;88.98;102440.78;6074254;23;20023;-78
2023/04/30 01:01:31;;;;;;;10.68;7.18;;;;;;;6.18;88.91;102440.38;6069868;23;20216;-77
2023/04/30 01:03:59;;;;;;;11.93;7.60;;;;;;;6.09;88.81;102433.88;6071002;23;20473;-78
2023/04/30 01:06:26;;;;;;;11.30;7.78;;;;;;;5.99;89.05;102436.13;6071289;23;20026;-78
2023/04/30 01:08:53;;;;;;;11.38;7.97;;;;;;;5.97;89.34;102429.66;6069441;23;20032;-78
2023/04/30 01:11:43;;;;;;;10.05;7.13;;;;;;;5.94;88.75;102435.69;6070058;23;20033;-78
2023/04/30 01:14:16;;;;;;;17.42;7.63;;;;;;;5.94;89.55;102441.72;6071039;23;20075;-78
2023/04/30 01:16:50;;;;;;;11.23;7.57;;;;;;;5.97;89.54;102437.59;6070289;23;20087;-79
2023/04/30 01:19:37;;;;;;;9.25;7.20;;;;;;;5.95;89.74;102442.50;6071282;23;20197;-78
2023/04/30 01:22:08;;;;;;;8.07;6.80;;;;;;;5.95;89.96;102437.22;6070466;23;20062;-78
2023/04/30 01:24:34;;;;;;;9.75;7.25;;;;;;;5.89;90.12;102444.72;6071950;23;20055;-79
2023/04/30 01:27:47;;;;;;;9.45;7.25;;;;;;;5.87;89.88;102435.59;6069502;23;20458;-78
2023/04/30 01:30:15;;;;;;;9.40;7.00;;;;;;;5.85;89.77;102443.13;6069380;23;20494;-78
2023/04/30 01:32:42;;;;;;;9.55;7.50;;;;;;;5.83;89.91;102445.38;6071682;23;20026;-78
2023/04/30 01:35:09;;;;;;;8.95;7.18;;;;;;;5.77;90.36;102442.31;6070299;23;20043;-78
2023/04/30 01:37:58;;;;;;;9.90;7.47;;;;;;;5.76;89.75;102442.66;6069851;23;20087;-78
2023/04/30 01:40:41;;;;;;;10.70;7.68;;;;;;;5.73;90.18;102438.09;6071645;23;20030;-78
2023/04/30 01:43:18;;;;;;;12.73;7.88;;;;;;;5.68;90.75;102437.31;6069414;23;20091;-78
2023/04/30 01:46:04;;;;;;;15.45;10.07;;;;;;;5.64;90.49;102439.16;6069967;23;20024;-78
2023/04/30 01:48:46;;;;;;;10.00;8.60;;;;;;;5.60;90.62;102442.91;6069610;23;20405;-78
2023/04/30 01:51:34;;;;;;;16.27;8.90;;;;;;;5.59;90.56;102444.81;6069198;23;20019;-78
2023/04/30 01:54:25;;;;;;;15.13;8.55;;;;;;;5.57;90.99;102449.69;6068800;23;20514;-78
2023/04/30 01:57:03;;;;;;;11.80;7.88;;;;;;;5.53;91.47;102448.13;6071215;23;20086;-78
2023/04/30 01:59:33;;;;;;;11.35;8.15;;;;;;;5.52;91.73;102451.91;6071447;23;20020;-78
2023/04/30 02:02:00;;;;;;;15.18;8.32;;;;;;;5.49;91.66;102455.25;6068463;23;20023;-78
2023/04/30 02:04:26;;;;;;;9.88;7.47;;;;;;;5.46;91.65;102456.75;6070960;23;20027;-78
2023/04/30 02:06:53;;;;;;;8.55;7.60;;;;;;;5.45;91.77;102449.19;6069288;23;20613;-78
2023/04/30 02:09:22;;;;;;;14.10;8.07;;;;;;;5.46;92.06;102448.06;6069264;23;20517;-78
2023/04/30 02:11:50;;;;;;;10.93;8.07;;;;;;;5.45;92.29;102452.59;6071472;23;20369;-78
2023/04/30 02:14:16;;;;;;;11.43;7.90;;;;;;;5.43;92.03;102457.47;6071038;23;20027;-78
2023/04/30 02:16:43;;;;;;;13.38;8.82;;;;;;;5.42;92.65;102455.94;6069715;23;20019;-78
2023/04/30 02:19:10;;;;;;;10.23;8.00;;;;;;;5.39;92.82;102455.91;6069916;23;20019;-77
2023/04/30 02:21:36;;;;;;;13.63;8.75;;;;;;;5.35;92.75;102448.69;6069475;23;20474;-78
2023/04/30 02:24:04;;;;;;;11.43;8.73;;;;;;;5.31;93.13;102444.50;6068701;23;20030;-78
2023/04/30 02:26:30;;;;;;;12.20;8.38;;;;;;;5.29;93.21;102449.38;6069910;23;20022;-78
2023/04/30 02:28:57;;;;;;;12.48;7.53;;;;;;;5.28;93.25;102448.63;6069074;23;20382;-77
2023/04/30 02:31:23;;;;;;;10.60;8.00;;;;;;;5.28;93.43;102447.88;6069689;23;20411;-78
2023/04/30 02:33:50;;;;;;;10.88;8.07;;;;;;;5.24;93.51;102439.91;6068646;23;20450;-78
2023/04/30 02:36:16;;;;;;;11.35;8.38;;;;;;;5.22;93.39;102444.78;6071031;23;20063;-78
2023/04/30 02:38:43;;;;;;;12.40;8.95;;;;;;;5.21;93.67;102447.78;6071561;23;20090;-78
2023/04/30 02:41:09;;;;;;;15.43;8.65;;;;;;;5.20;94.21;102447.03;6070405;23;20019;-78
2023/04/30 02:43:36;;;;;;;11.13;8.43;;;;;;;5.21;94.09;102447.78;6069494;23;20023;-78
2023/04/30 02:46:02;;;;;;;10.73;7.88;;;;;;;5.18;94.39;102440.59;6068936;23;20457;-78
2023/04/30 02:48:29;;;;;;;11.00;8.05;;;;;;;5.16;93.83;102448.13;6070832;23;20437;-78
2023/04/30 02:50:55;;;;;;;12.32;7.82;;;;;;;5.13;94.18;102436.41;6068658;23;20084;-78
2023/04/30 02:53:22;;;;;;;10.75;7.95;;;;;;;5.12;94.20;102436.75;6069511;23;20023;-78
2023/04/30 02:55:48;;;;;;;9.77;7.80;;;;;;;5.09;93.69;102434.84;6069184;23;20059;-78
2023/04/30 02:58:15;;;;;;;12.93;8.13;;;;;;;5.05;93.99;102436.69;6071029;23;20391;-78
2023/04/30 03:00:41;;;;;;;8.70;7.03;;;;;;;4.99;94.02;102439.63;6084916;23;20134;-78
2023/04/30 03:03:08;;;;;;;9.75;7.00;;;;;;;4.97;93.94;102439.22;6072815;23;20027;-78
2023/04/30 03:05:35;;;;;;;9.95;7.30;;;;;;;4.93;93.82;102435.03;6074035;23;20098;-78
2023/04/30 03:08:01;;;;;;;8.38;7.13;;;;;;;4.91;93.10;102432.75;6099473;23;20161;-78
2023/04/30 03:10:28;;;;;;;9.82;7.13;;;;;;;4.87;93.33;102431.94;6074120;23;20025;-77
2023/04/30 03:12:54;;;;;;;10.00;7.00;;;;;;;4.87;93.35;102431.19;6074261;23;20046;-78
2023/04/30 03:15:21;;;;;;;9.80;6.85;;;;;;;4.84;93.00;102437.94;6073958;23;20106;-78
2023/04/30 03:17:47;;;;;;;8.90;7.32;;;;;;;4.83;93.04;102436.41;6099286;23;20019;-78
2023/04/30 03:20:14;;;;;;;8.60;6.45;;;;;;;4.81;93.43;102432.59;6099643;23;20066;-78
2023/04/30 03:22:41;;;;;;;11.13;7.20;;;;;;;4.77;93.27;102432.59;6100058;23;20023;-79
2023/04/30 03:25:09;;;;;;;10.07;6.60;;;;;;;4.74;92.89;102438.59;6073299;23;20037;-79
2023/04/30 03:27:35;;;;;;;12.10;7.22;;;;;;;4.71;93.56;102435.91;6050438;23;20018;-79
2023/04/30 03:30:02;;;;;;;9.93;7.03;;;;;;;4.66;93.03;102431.69;6099216;23;20022;-79
2023/04/30 03:32:28;;;;;;;7.80;6.88;;;;;;;4.63;92.95;102427.88;6099247;23;20034;-79
2023/04/30 03:34:55;;;;;;;9.25;6.78;;;;;;;4.62;92.96;102423.72;6073377;23;20023;-78
2023/04/30 03:37:22;;;;;;;13.32;7.20;;;;;;;4.59;93.04;102435.00;6074290;23;20449;-79
2023/04/30 03:39:49;;;;;;;9.07;6.93;;;;;;;4.58;92.97;102432.72;6099557;23;20037;-78
2023/04/30 03:42:15;;;;;;;11.77;6.85;;;;;;;4.56;92.82;102427.78;6099573;23;20030;-78
2023/04/30 03:44:42;;;;;;;9.43;6.55;;;;;;;4.54;92.63;102426.63;6099912;23;20098;-79
2023/04/30 03:47:09;;;;;;;8.00;6.32;;;;;;;4.49;93.01;102417.13;6072742;23;20019;-79
2023/04/30 03:49:36;;;;;;;8.32;6.53;;;;;;;4.46;92.79;102420.47;6099966;23;20155;-78
2023/04/30 03:52:04;;;;;;;8.75;6.32;;;;;;;4.46;92.94;102417.84;6073154;23;20027;-78
2023/04/30 03:54:32;;;;;;;7.63;6.57;;;;;;;4.44;93.06;102419.31;6099792;23;20446;-78
2023/04/30 03:57:02;;;;;;;9.98;6.43;;;;;;;4.42;92.90;102419.66;6073039;23;20019;-78
2023/04/30 03:59:32;;;;;;;13.15;7.10;;;;;;;4.41;92.72;102422.66;6099198;23;20019;-78
2023/04/30 04:02:00;;;;;;;13.48;7.07;;;;;;;4.40;92.81;102429.09;6098840;23;20465;-78
2023/04/30 04:04:28;;;;;;;7.93;6.55;;;;;;;4.35;93.06;102430.16;6073596;23;20015;-78
2023/04/30 04:06:55;;;;;;;8.27;6.70;;;;;;;4.33;93.07;102422.59;6099285;23;20015;-79
2023/04/30 04:09:22;;;;;;;6.72;6.10;;;;;;;4.34;92.75;102426.00;6073953;23;20380;-79
2023/04/30 04:11:48;;;;;;;7.15;6.45;;;;;;;4.33;92.35;102429.75;6101303;23;20029;-80
2023/04/30 04:14:15;;;;;;;7.70;6.45;;;;;;;4.30;92.88;102423.28;6075648;23;20301;-78
2023/04/30 04:16:42;;;;;;;8.50;6.32;;;;;;;4.32;92.49;102428.22;6076540;23;20019;-78
2023/04/30 04:19:09;;;;;;;7.95;6.72;;;;;;;4.32;92.50;102433.50;6101800;23;20015;-78
2023/04/30 04:21:36;;;;;;;8.20;6.40;;;;;;;4.32;92.64;102421.06;6076828;23;20417;-78
2023/04/30 04:24:09;;;;;;;12.35;6.53;;;;;;;4.32;92.71;102417.66;6075984;23;20101;-78
2023/04/30 04:26:36;;;;;;;11.23;6.85;;;;;;;4.32;92.52;102417.66;6102935;23;20532;-78
2023/04/30 04:29:03;;;;;;;7.45;6.55;;;;;;;4.30;92.18;102417.25;6075202;23;20029;-78
2023/04/30 04:31:30;;;;;;;9.60;6.53;;;;;;;4.29;92.70;102421.78;6102702;23;20473;-78
2023/04/30 04:33:59;;;;;;;8.63;6.88;;;;;;;4.25;92.68;102420.97;6052121;23;20075;-78
2023/04/30 04:36:27;;;;;;;9.25;6.32;;;;;;;4.26;92.59;102427.00;6076677;23;20102;-78
2023/04/30 04:39:02;;;;;;;11.00;6.90;;;;;;;4.26;92.62;102419.09;6076117;23;20015;-78
2023/04/30 04:41:33;;;;;;;8.93;7.15;;;;;;;4.27;92.57;102426.63;6076743;23;20031;-78
2023/04/30 04:44:02;;;;;;;8.82;6.60;;;;;;;4.30;92.75;102431.19;6052114;23;20071;-78
2023/04/30 04:46:30;;;;;;;9.80;7.00;;;;;;;4.31;92.78;102424.06;6076672;23;20106;-78
2023/04/30 04:48:57;;;;;;;7.88;6.60;;;;;;;4.32;92.50;102428.22;6075782;23;20026;-78
2023/04/30 04:51:24;;;;;;;10.90;7.28;;;;;;;4.34;92.80;102433.91;6076639;23;20026;-79
2023/04/30 04:53:50;;;;;;;11.73;7.50;;;;;;;4.38;92.81;102439.97;6075998;23;20417;-78
2023/04/30 04:56:17;;;;;;;8.70;7.38;;;;;;;4.44;92.86;102440.41;6052501;23;20026;-76
2023/04/30 04:58:44;;;;;;;8.63;7.07;;;;;;;4.50;93.03;102436.34;6075996;23;20026;-79
2023/04/30 05:01:11;;;;;;;9.43;6.50;;;;;;;4.54;92.96;102439.81;6070662;23;20489;-78
2023/04/30 05:03:37;;;;;;;9.25;6.63;;;;;;;4.58;93.09;102435.34;6048200;23;20037;-77
2023/04/30 05:06:05;;;;;;;8.43;6.72;;;;;;;4.62;92.92;102430.88;6071347;23;20047;-78
2023/04/30 05:08:31;;;;;;;7.20;6.18;;;;;;;4.71;93.08;102431.38;6073497;23;20020;-79
2023/04/30 05:10:59;;;;;;;14.05;6.97;;;;;;;6.08;93.37;102429.72;6072558;23;20429;-79
2023/04/30 05:13:25;;;;;;;8.00;6.85;;;;;;;8.72;83.95;102429.84;6073285;23;20094;-79
2023/04/30 05:15:52;;;;;;;12.38;7.45;;;;;;;10.71;73.33;102428.28;6073162;23;20023;-78
2023/04/30 05:18:19;;;;;;;8.48;7.32;;;;;;;12.13;66.85;102425.41;6073055;23;20198;-79
2023/04/30 05:20:46;;;;;;;8.85;7.22;;;;;;;13.32;62.04;102426.78;6073932;23;20481;-79
2023/04/30 05:23:12;;;;;;;9.85;7.30;;;;;;;14.20;58.24;102428.41;6071240;23;20417;-79
2023/04/30 05:25:39;;;;;;;7.70;6.97;;;;;;;14.95;55.28;102426.31;6071803;23;20042;-77
2023/04/30 05:28:05;;;;;;;9.52;7.00;;;;;;;15.68;53.36;102451.28;6070347;23;20067;-79
2023/04/30 05:30:32;;;;;;;7.88;6.72;;;;;;;16.13;51.43;102445.53;6071399;23;20023;-78
2023/04/30 05:32:58;;;;;;;9.82;6.93;;;;;;;16.61;49.75;102449.59;6070776;23;20394;-78
2023/04/30 05:35:25;;;;;;;7.68;6.97;;;;;;;17.02;48.78;102449.66;6071458;23;20182;-78
2023/04/30 05:37:52;;;;;;;8.23;6.53;;;;;;;17.46;47.47;102453.66;6071967;23;20500;-78
2023/04/30 05:40:19;;;;;;;7.68;6.88;;;;;;;17.73;46.62;102452.22;6071812;23;20047;-78
2023/04/30 05:42:45;;;;;;;12.23;7.20;;;;;;;18.01;45.84;102456.41;6071018;23;20083;-78
2023/04/30 05:45:13;;;;;;;10.93;7.18;;;;;;;18.02;45.87;102463.31;6070830;23;20027;-79
2023/04/30 05:47:40;;;;;;;11.25;7.50;;;;;;;18.37;45.88;102463.00;6069502;23;20031;-79
2023/04/30 05:50:08;;;;;;;11.25;7.63;;;;;;;18.77;45.14;102477.00;6068665;23;20498;-79
2023/04/30 05:52:35;;;;;;;8.70;7.15;;;;;;;19.00;44.97;102475.56;6071721;23;20027;-79
2023/04/30 05:55:01;;;;;;;9.57;7.38;;;;;;;18.91;44.50;102480.97;6071800;23;20026;-79
2023/04/30 05:57:28;;;;;;;11.15;7.10;;;;;;;18.65;45.54;102478.69;6069992;23;20020;-79
2023/04/30 05:59:54;;;;;;;8.15;6.68;;;;;;;18.59;45.32;102472.38;6076436;23;20026;-78
2023/04/30 06:02:21;;;;;;;9.32;6.63;;;;;;;18.50;46.73;102482.44;6075873;23;20071;-79
2023/04/30 06:04:48;;;;;;;9.10;6.90;;;;;;;18.41;46.42;102483.19;6101199;23;20390;-78
2023/04/30 06:07:15;;;;;;;9.82;6.10;;;;;;;18.03;47.41;102478.28;6100656;23;20015;-80
2023/04/30 06:09:41;;;;;;;8.10;6.10;;;;;;;17.54;47.85;102478.38;6051368;23;20473;-79
2023/04/30 06:12:08;;;;;;;10.70;6.93;;;;;;;16.96;50.00;102479.81;6074334;23;20414;-80
2023/04/30 06:14:35;;;;;;;9.57;5.93;;;;;;;16.76;50.50;102478.69;6101205;23;20045;-80
2023/04/30 06:17:02;;;;;;;11.73;6.05;;;;;;;16.46;50.16;102485.47;6075122;23;20026;-80
2023/04/30 06:19:28;;;;;;;8.35;5.78;;;;;;;15.99;52.74;102478.28;6101149;23;20033;-80
2023/04/30 06:21:55;;;;;;;9.48;6.05;;;;;;;15.57;53.79;102480.41;6100913;23;20046;-80
2023/04/30 06:24:21;;;;;;;7.82;5.70;;;;;;;15.25;54.27;102490.16;6100659;23;20467;-80
2023/04/30 06:26:48;;;;;;;9.30;6.47;;;;;;;14.87;56.13;102486.69;6075584;23;20045;-79
2023/04/30 06:29:14;;;;;;;10.60;7.05;;;;;;;14.74;56.26;102483.25;6100881;23;20421;-81
2023/04/30 06:31:41;;;;;;;11.07;6.50;;;;;;;14.70;56.69;102483.34;6101212;23;20023;-81
2023/04/30 06:34:07;;;;;;;10.52;6.53;;;;;;;14.42;57.20;102481.44;6100507;23;20035;-80
2023/04/30 06:36:34;;;;;;;8.77;6.70;;;;;;;14.17;58.73;102490.88;6101254;23;20015;-80
2023/04/30 06:39:03;;;;;;;7.35;6.65;;;;;;;14.01;58.54;102482.84;6074873;23;20087;-81
2023/04/30 06:41:30;;;;;;;6.45;5.85;;;;;;;13.86;59.32;102485.13;6101204;23;20014;-80
2023/04/30 06:43:57;;;;;;;8.50;5.50;;;;;;;13.71;59.96;102489.31;6075407;23;20026;-83
2023/04/30 06:46:23;;;;;;;6.30;5.60;;;;;;;13.56;60.22;102483.56;6075160;23;20153;-81
2023/04/30 06:48:50;;;;;;;6.32;5.65;;;;;;;13.58;61.14;102486.59;6051306;23;20058;-78
2023/04/30 06:51:16;;;;;;;6.35;5.47;;;;;;;13.65;61.00;102488.31;6075055;23;20029;-79
2023/04/30 06:53:43;;;;;;;6.22;5.63;;;;;;;13.58;60.92;102481.22;6100606;23;20011;-79
2023/04/30 06:56:09;;;;;;;6.88;5.50;;;;;;;13.61;61.38;102484.97;6100682;23;20088;-78
2023/04/30 06:58:36;;;;;;;9.63;6.03;;;;;;;13.53;61.54;102480.97;6101211;23;20062;-78
2023/04/30 07:01:02;;;;;;;6.85;5.47;;;;;;;13.54;62.05;102479.81;6100402;23;20489;-81
2023/04/30 07:03:29;;;;;;;6.47;5.60;;;;;;;13.52;62.06;102484.81;6101148;23;20051;-81
2023/04/30 07:05:56;;;;;;;8.05;6.00;;;;;;;13.57;61.49;102490.44;6100911;23;20015;-82
2023/04/30 07:08:27;;;;;;;6.80;5.65;;;;;;;13.53;61.98;102489.75;6075976;23;20023;-81
2023/04/30 07:10:53;;;;;;;8.43;5.68;;;;;;;13.62;61.53;102484.53;6075819;23;20083;-81
2023/04/30 07:13:20;;;;;;;7.35;5.40;;;;;;;13.75;61.19;102494.59;6100879;23;20066;-82
2023/04/30 07:15:48;;;;;;;5.97;5.13;;;;;;;13.76;60.93;102490.75;6100964;23;20022;-81
2023/04/30 07:18:15;;;;;;;7.45;4.97;;;;;;;13.85;61.47;102488.25;6075120;23;20190;-81
2023/04/30 07:20:41;;;;;;;7.45;5.25;;;;;;;13.98;61.48;102497.09;6100865;23;20011;-80
2023/04/30 07:23:08;;;;;;;5.60;5.20;;;;;;;13.95;60.97;102493.34;6100134;23;20054;-79
2023/04/30 07:25:34;;;;;;;8.02;5.65;;;;;;;13.99;60.91;102501.28;6101461;23;20047;-85
2023/04/30 07:28:01;;;;;;;9.35;5.70;;;;;;;13.96;60.80;102496.78;6101670;23;20019;-84
2023/04/30 07:30:28;;;;;;;7.05;5.45;;;;;;;13.95;60.71;102504.03;6101353;23;20412;-80
2023/04/30 07:32:55;;;;;;;5.45;4.97;;;;;;;14.02;60.77;102503.09;6101257;23;20079;-81
2023/04/30 07:35:22;;;;;;;8.75;5.90;;;;;;;13.99;59.90;102495.94;6100986;23;20039;-82
2023/04/30 07:37:48;;;;;;;5.68;5.18;;;;;;;14.09;60.49;102497.56;6098747;23;20051;-82
2023/04/30 07:40:15;;;;;;;7.30;5.13;;;;;;;14.11;61.00;102494.47;6100783;23;20430;-82
2023/04/30 07:43:00;;;;;;;8.43;5.47;;;;;;;14.20;59.72;102503.41;6054684;23;20098;-82
2023/04/30 07:45:27;;;;;;;6.55;5.78;;;;;;;14.10;60.59;102499.06;6074825;23;20082;-80
2023/04/30 07:47:53;;;;;;;6.65;5.88;;;;;;;14.24;61.77;102500.66;6101102;23;20461;-87
2023/04/30 07:50:20;;;;;;;6.55;5.95;;;;;;;14.57;60.04;102493.28;6100597;23;20050;-84
2023/04/30 07:52:48;;;;;;;9.27;5.90;;;;;;;14.70;58.46;102494.09;6100983;23;20449;-85
2023/04/30 07:55:15;;;;;;;10.63;5.70;;;;;;;14.87;59.20;102492.81;6075701;23;20049;-86
2023/04/30 07:57:42;;;;;;;8.20;5.75;;;;;;;15.00;58.52;102485.53;6101398;23;20732;-78
2023/04/30 08:00:09;;;;;;;8.15;5.85;;;;;;;14.95;58.30;102485.31;6099846;23;20019;-78
2023/04/30 08:02:38;;;;;;;6.03;5.50;;;;;;;14.86;58.74;102485.19;6100731;23;20485;-78
2023/04/30 08:05:05;;;;;;;7.00;5.53;;;;;;;14.89;58.56;102487.78;6074964;23;20425;-77
2023/04/30 08:07:32;;;;;;;5.82;5.32;;;;;;;15.15;57.83;102479.78;6074689;23;20082;-77
2023/04/30 08:09:58;;;;;;;6.60;5.80;;;;;;;15.33;57.65;102485.34;6100343;23;20070;-77
2023/04/30 08:12:25;;;;;;;9.25;5.70;;;;;;;15.50;56.61;102492.09;6074938;23;20504;-78
2023/04/30 08:14:59;;;;;;;7.40;5.65;;;;;;;15.46;56.29;102483.41;6074871;23;20095;-77
2023/04/30 08:17:26;;;;;;;7.40;5.13;;;;;;;15.59;55.58;102484.19;6100570;23;20019;-77
2023/04/30 08:19:52;;;;;;;7.22;6.20;;;;;;;15.73;55.90;102484.88;6073294;23;20015;-77
2023/04/30 08:22:19;;;;;;;7.13;5.60;;;;;;;15.88;56.17;102480.56;6097786;23;20057;-78
2023/04/30 08:24:46;;;;;;;6.03;4.93;;;;;;;15.78;56.14;102487.03;6098922;23;20556;-78
2023/04/30 08:27:12;;;;;;;5.57;5.07;;;;;;;16.04;55.60;102485.00;6098527;23;20076;-78
2023/04/30 08:29:39;;;;;;;5.57;5.03;;;;;;;16.23;55.36;102484.72;6073394;23;20042;-78
2023/04/30 08:32:05;;;;;;;5.40;5.10;;;;;;;16.25;54.02;102486.97;6098410;23;20015;-78
2023/04/30 08:34:32;;;;;;;5.90;5.40;;;;;;;16.07;55.21;102487.56;6100236;23;20038;-78
2023/04/30 08:37:00;;;;;;;6.22;5.10;;;;;;;16.15;55.25;102491.53;6073755;23;20081;-78
2023/04/30 08:39:26;;;;;;;6.53;4.90;;;;;;;16.11;53.91;102490.91;6100408;23;20451;-78
2023/04/30 08:42:01;;;;;;;5.07;4.55;;;;;;;16.22;54.46;102490.53;6100605;23;20050;-78
2023/04/30 08:44:28;;;;;;;6.32;5.32;;;;;;;16.41;53.31;102484.09;6074840;23;20418;-78
2023/04/30 08:46:57;;;;;;;5.32;4.70;;;;;;;16.53;52.63;102485.22;6100458;23;20026;-78
2023/04/30 08:49:24;;;;;;;4.65;4.32;;;;;;;16.64;53.56;102485.63;6099776;23;20445;-78
2023/04/30 08:51:51;;;;;;;4.85;4.45;;;;;;;16.82;53.26;102476.91;6074599;23;20022;-78
2023/04/30 08:54:18;;;;;;;4.65;4.25;;;;;;;16.78;53.01;102485.13;6100022;23;20019;-78
2023/04/30 08:56:45;;;;;;;4.40;4.03;;;;;;;16.88;51.75;102486.66;6100635;23;20023;-78
2023/04/30 08:59:12;;;;;;;6.57;4.13;;;;;;;16.90;51.42;102486.97;6101482;23;20018;-78
2023/04/30 09:01:40;;;;;;;12.93;4.40;;;;;;;17.02;51.24;102485.38;6101255;23;20330;-77
2023/04/30 09:04:07;;;;;;;5.15;4.10;;;;;;;17.15;50.83;102482.59;6075065;23;20386;-78
2023/04/30 09:06:33;;;;;;;4.90;4.45;;;;;;;17.12;50.96;102480.78;6101732;23;20102;-78
2023/04/30 09:09:10;;;;;;;8.18;4.50;;;;;;;17.14;51.15;102476.47;6101228;23;20018;-78
2023/04/30 09:11:37;;;;;;;4.80;3.97;;;;;;;17.26;51.62;102472.16;6076377;23;20130;-78
2023/04/30 09:14:03;;;;;;;4.43;4.10;;;;;;;17.48;50.24;102474.75;6101096;23;20103;-78
2023/04/30 09:16:46;;;;;;;6.75;4.63;;;;;;;17.65;50.55;102478.69;6101489;23;20071;-78
2023/04/30 09:19:26;;;;;;;5.07;4.28;;;;;;;17.53;50.42;102474.19;6100787;23;20043;-78
2023/04/30 09:21:53;;;;;;;4.30;4.00;;;;;;;17.51;50.50;102479.25;6101683;23;20059;-78
2023/04/30 09:24:20;;;;;;;11.43;3.78;;;;;;;17.65;49.14;102476.00;6075266;23;20110;-78
2023/04/30 09:26:46;;;;;;;6.90;4.53;;;;;;;17.79;49.25;102474.69;6101434;23;20023;-78
2023/04/30 09:29:13;;;;;;;5.45;3.80;;;;;;;17.99;49.36;102472.31;6101109;23;20398;-78
2023/04/30 09:31:45;;;;;;;5.97;3.75;;;;;;;17.95;48.45;102467.06;6101503;23;20046;-78
2023/04/30 09:34:12;;;;;;;5.78;5.07;;;;;;;18.10;48.93;102461.81;6100553;23;20427;-78
2023/04/30 09:36:53;;;;;;;5.00;3.80;;;;;;;18.32;48.70;102465.09;6101524;23;20388;-77
2023/04/30 09:39:21;;;;;;;4.78;3.72;;;;;;;18.30;47.34;102464.03;6100840;23;20079;-78
2023/04/30 09:41:49;;;;;;;4.05;3.72;;;;;;;18.46;47.66;102466.41;6101543;23;20025;-78
2023/04/30 09:44:27;;;;;;;3.78;3.47;;;;;;;18.43;48.66;102464.59;6101302;23;20627;-78
2023/04/30 09:46:56;;;;;;;4.53;3.50;;;;;;;18.35;47.80;102455.34;6101410;23;20019;-78
2023/04/30 09:49:25;;;;;;;7.78;3.72;;;;;;;18.41;47.86;102458.91;6100779;23;20019;-78
2023/04/30 09:51:55;;;;;;;4.65;3.88;;;;;;;18.34;48.11;102464.66;6101145;23;20453;-77
2023/04/30 09:54:29;;;;;;;3.50;3.20;;;;;;;18.54;47.18;102456.06;6101244;23;20015;-77
2023/04/30 09:57:01;;;;;;;3.15;2.95;;;;;;;18.77;46.41;102454.69;6101241;23;20449;-78
2023/04/30 09:59:31;;;;;;;3.35;3.08;;;;;;;18.78;46.41;102451.53;6075395;23;20022;-78
2023/04/30 10:02:00;;;;;;;3.90;3.22;;;;;;;18.84;46.34;102455.06;6046063;23;20016;-77
2023/04/30 10:04:29;;;;;;;4.43;3.45;;;;;;;18.62;47.18;102441.06;6072290;23;20030;-78
2023/04/30 10:06:58;;;;;;;5.18;3.63;;;;;;;18.71;46.02;102451.09;6046087;23;20477;-78
2023/04/30 10:09:33;;;;;;;4.18;3.40;;;;;;;18.88;46.11;102444.13;6071933;23;20415;-77
2023/04/30 10:12:02;;;;;;;4.68;3.58;;;;;;;18.97;46.47;102436.75;6071893;23;20022;-78
2023/04/30 10:14:33;;;;;;;3.28;3.03;;;;;;;18.95;46.58;102444.53;6070422;23;20015;-78
2023/04/30 10:17:10;;;;;;;3.33;3.10;;;;;;;19.26;45.08;102435.38;6071403;23;20019;-78
2023/04/30 10:19:42;;;;;;;3.67;3.40;;;;;;;19.41;44.58;102432.75;6072424;23;20015;-77
2023/04/30 10:22:12;;;;;;;4.00;3.25;;;;;;;19.55;45.03;102430.13;6072210;23;20417;-78
2023/04/30 10:24:40;;;;;;;3.83;3.10;;;;;;;19.53;45.68;102429.84;6072182;23;20023;-76
2023/04/30 10:27:07;;;;;;;3.25;3.00;;;;;;;19.59;44.57;102432.66;6071755;23;20525;-76
2023/04/30 10:29:33;;;;;;;3.50;3.00;;;;;;;19.65;44.30;102434.25;6072343;23;20040;-79
2023/04/30 10:32:00;;;;;;;4.18;3.50;;;;;;;19.61;44.71;102436.38;6045833;23;20015;-78
2023/04/30 10:34:50;;;;;;;4.80;3.33;;;;;;;19.68;44.24;102423.72;6072127;23;20016;-79
2023/04/30 10:38:11;;;;;;;3.72;3.40;;;;;;;19.73;44.16;102421.13;6071957;23;20454;-78
2023/04/30 10:40:38;;;;;;;3.47;3.17;;;;;;;19.70;43.10;102415.91;5960262;23;20021;-78
2023/04/30 10:43:04;;;;;;;3.85;2.85;;;;;;;19.75;42.62;102417.97;5983671;23;20028;-78
2023/04/30 10:45:36;;;;;;;3.33;3.13;;;;;;;19.93;43.13;102413.16;5982967;23;20081;-79
2023/04/30 10:48:04;;;;;;;6.30;3.10;;;;;;;19.84;43.55;102410.53;5983514;23;20029;-78
2023/04/30 10:50:31;;;;;;;3.72;3.28;;;;;;;20.04;42.69;102412.59;5983500;23;20052;-78
2023/04/30 10:53:02;;;;;;;3.85;3.13;;;;;;;20.04;41.67;102409.13;5983442;23;20024;-78
2023/04/30 10:55:30;;;;;;;4.65;3.40;;;;;;;20.11;43.33;102414.94;5960266;23;20032;-78
2023/04/30 10:57:57;;;;;;;4.03;2.80;;;;;;;20.05;41.79;102400.56;5983185;23;20059;-77
2023/04/30 11:00:26;;;;;;;5.05;3.30;;;;;;;20.31;42.33;102398.06;5993178;23;20020;-78
2023/04/30 11:03:02;;;;;;;4.38;3.17;;;;;;;20.41;42.07;102391.34;5988189;23;20020;-78
2023/04/30 11:05:37;;;;;;;3.35;2.55;;;;;;;20.70;41.63;102392.53;5988326;23;20044;-78
2023/04/30 11:08:04;;;;;;;3.70;3.40;;;;;;;20.78;40.84;102386.25;6011756;23;20470;-78
2023/04/30 11:10:33;;;;;;;2.80;2.60;;;;;;;20.84;42.25;102387.06;6022422;23;20024;-76
2023/04/30 11:13:09;;;;;;;3.72;3.00;;;;;;;20.76;42.31;102379.81;6100951;23;20093;-77
2023/04/30 11:15:44;;;;;;;3.42;3.13;;;;;;;20.51;41.94;102386.56;6100585;23;20361;-78
2023/04/30 11:18:12;;;;;;;5.70;3.00;;;;;;;20.46;41.68;102381.81;6100698;23;20513;-78
2023/04/30 11:20:43;;;;;;;4.03;3.40;;;;;;;20.35;41.30;102371.56;6100138;23;20015;-78
2023/04/30 11:23:16;;;;;;;3.10;2.90;;;;;;;20.30;42.68;102367.56;6100506;23;20046;-78
2023/04/30 11:26:03;;;;;;;8.10;3.00;;;;;;;20.20;42.03;102374.28;6100614;23;20022;-77
2023/04/30 11:28:33;;;;;;;3.03;2.90;;;;;;;20.18;41.92;102363.19;6101037;23;20082;-78
2023/04/30 11:31:00;;;;;;;3.67;3.00;;;;;;;20.09;42.18;102359.84;6100103;23;20173;-78
2023/04/30 11:33:28;;;;;;;4.30;2.70;;;;;;;20.23;42.04;102359.09;6100974;23;20018;-77